Time;durP1;ratioP1;P1;durP2;ratioP2;P2;SDS_P1;SDS_P2;PMS_P1;PMS_P2;Temp;Humidity;BMP_temperature;BMP_pressure;BME280_temperature;BME280_humidity;BME280_pressure;Samples;Min_cycle;Max_cycle;Signal;HPM_P1;HPM_P2
2022/05/30 00:00:34;;;;;;;2.40;1.40;;;10.50;99.90;;;;;;5073244;28;20472;-45
2022/05/30 00:03:01;;;;;;;1.67;1.47;;;10.60;99.90;;;;;;5073875;28;20479;-46
2022/05/30 00:05:30;;;;;;;4.13;1.50;;;10.60;99.90;;;;;;5072669;28;20889;-45
2022/05/30 00:07:57;;;;;;;1.30;1.20;;;10.60;99.90;;;;;;5073161;28;20906;-47
2022/05/30 00:10:26;;;;;;;1.50;1.40;;;10.60;99.90;;;;;;5073016;28;20475;-45
2022/05/30 00:12:53;;;;;;;2.00;1.40;;;10.70;99.90;;;;;;5073209;28;20447;-44
2022/05/30 00:15:22;;;;;;;2.07;1.83;;;10.60;99.90;;;;;;5073412;28;20929;-45
2022/05/30 00:17:49;;;;;;;1.60;1.30;;;10.60;99.90;;;;;;5131037;22;20479;-43
2022/05/30 00:20:16;;;;;;;2.87;1.70;;;10.70;99.90;;;;;;5072422;28;20562;-43
2022/05/30 00:22:43;;;;;;;1.77;1.63;;;10.70;99.90;;;;;;5073264;28;20448;-43
2022/05/30 00:25:10;;;;;;;2.03;1.57;;;10.70;99.90;;;;;;5073460;28;20444;-45
2022/05/30 00:27:39;;;;;;;2.53;1.53;;;10.70;99.90;;;;;;5072905;28;20498;-44
2022/05/30 00:30:07;;;;;;;1.93;1.60;;;10.70;99.90;;;;;;5073002;28;20444;-43
2022/05/30 00:32:35;;;;;;;2.43;1.30;;;10.70;99.90;;;;;;5073002;28;20480;-48
2022/05/30 00:35:03;;;;;;;2.47;1.70;;;10.70;99.90;;;;;;5073019;28;20867;-43
2022/05/30 00:37:30;;;;;;;2.70;1.53;;;10.40;99.90;;;;;;5072664;28;20444;-43
2022/05/30 00:39:57;;;;;;;4.03;2.17;;;10.30;99.90;;;;;;5072201;28;20538;-43
2022/05/30 00:42:26;;;;;;;1.73;1.07;;;10.30;99.90;;;;;;5073025;28;20440;-44
2022/05/30 00:44:55;;;;;;;2.17;1.40;;;10.30;99.90;;;;;;5072798;28;20874;-43
2022/05/30 00:47:25;;;;;;;1.90;1.40;;;10.40;99.90;;;;;;5072556;28;20506;-43
2022/05/30 00:49:52;;;;;;;1.50;1.30;;;10.40;99.90;;;;;;5072375;28;20437;-45
2022/05/30 00:52:22;;;;;;;1.50;1.33;;;10.40;99.90;;;;;;5072654;28;20491;-48
2022/05/30 00:54:53;;;;;;;1.97;1.77;;;10.50;99.90;;;;;;5072696;28;20448;-43
2022/05/30 00:57:21;;;;;;;1.70;1.60;;;10.60;99.90;;;;;;5073014;28;20442;-44
2022/05/30 00:59:54;;;;;;;1.63;1.40;;;10.60;99.90;;;;;;5072129;28;20486;-43
2022/05/30 01:02:23;;;;;;;2.10;1.47;;;10.60;99.90;;;;;;5072420;28;20439;-43
2022/05/30 01:07:36;;;;;;;1.93;1.37;;;10.60;99.90;;;;;;5072213;28;20558;-48
2022/05/30 01:10:06;;;;;;;1.97;1.37;;;10.60;99.90;;;;;;5072195;28;20479;-43
2022/05/30 01:12:39;;;;;;;2.10;1.50;;;10.60;99.90;;;;;;5072135;28;20444;-46
2022/05/30 01:15:13;;;;;;;1.93;1.50;;;10.60;99.90;;;;;;5072089;28;20475;-44
2022/05/30 01:17:57;;;;;;;1.37;1.13;;;10.60;99.90;;;;;;5071750;28;21010;-43
2022/05/30 01:20:35;;;;;;;1.77;1.37;;;10.60;99.90;;;;;;5071907;28;20545;-44
2022/05/30 01:23:37;;;;;;;1.70;1.27;;;10.60;99.90;;;;;;5071869;28;20448;-44
2022/05/30 01:26:28;;;;;;;1.60;1.40;;;10.50;99.90;;;;;;5072048;28;20502;-43
2022/05/30 01:29:01;;;;;;;2.20;1.73;;;10.50;99.90;;;;;;5069048;28;20511;-43
2022/05/30 01:31:29;;;;;;;1.47;1.37;;;10.50;99.90;;;;;;5071690;28;20523;-44
2022/05/30 01:33:56;;;;;;;1.93;1.40;;;10.60;99.90;;;;;;5071699;28;20472;-43
2022/05/30 01:36:24;;;;;;;1.60;1.47;;;10.60;99.90;;;;;;5071956;28;20471;-44
2022/05/30 01:38:51;;;;;;;1.40;1.23;;;10.70;99.90;;;;;;5071655;28;20526;-44
2022/05/30 01:41:18;;;;;;;6.00;1.73;;;10.60;99.90;;;;;;5071399;28;20475;-44
2022/05/30 01:43:46;;;;;;;1.47;1.37;;;10.60;99.90;;;;;;5071629;28;20441;-44
2022/05/30 01:46:17;;;;;;;2.47;1.53;;;10.60;99.90;;;;;;5071837;28;20481;-45
2022/05/30 01:48:45;;;;;;;1.40;1.17;;;10.60;99.90;;;;;;5071606;28;20880;-42
2022/05/30 01:51:13;;;;;;;1.93;1.40;;;10.60;99.90;;;;;;5071571;28;20469;-43
2022/05/30 01:53:40;;;;;;;1.40;1.30;;;10.60;99.90;;;;;;5071505;28;20549;-43
2022/05/30 01:56:07;;;;;;;1.40;1.30;;;10.60;99.90;;;;;;5071621;28;20480;-43
2022/05/30 01:58:35;;;;;;;2.13;1.27;;;10.60;99.90;;;;;;5072031;28;20499;-44
2022/05/30 02:01:05;;;;;;;1.37;1.27;;;10.50;99.90;;;;;;5071283;28;20559;-45
2022/05/30 02:03:33;;;;;;;2.17;1.27;;;10.50;99.90;;;;;;5071611;28;20491;-43
2022/05/30 02:06:01;;;;;;;1.70;1.37;;;10.50;99.90;;;;;;5071334;28;20448;-44
2022/05/30 02:08:27;;;;;;;1.30;1.10;;;10.50;99.90;;;;;;5071390;28;20495;-43
2022/05/30 02:10:54;;;;;;;1.60;1.20;;;10.50;99.90;;;;;;5071113;28;20472;-45
2022/05/30 02:13:22;;;;;;;2.23;1.30;;;10.50;99.90;;;;;;5071356;28;20933;-43
2022/05/30 02:18:34;;;;;;;1.57;1.00;;;10.40;99.90;;;;;;5071463;28;20539;-43
2022/05/30 02:21:01;;;;;;;1.23;1.10;;;10.40;99.90;;;;;;5070883;28;20566;-43
2022/05/30 02:23:28;;;;;;;1.80;1.43;;;10.40;99.90;;;;;;5071334;28;20448;-43
2022/05/30 02:25:55;;;;;;;1.70;1.13;;;10.30;99.90;;;;;;5071152;28;20443;-48
2022/05/30 02:28:22;;;;;;;1.50;1.40;;;10.30;99.90;;;;;;5071094;28;20555;-43
2022/05/30 02:30:49;;;;;;;1.63;1.10;;;10.30;99.90;;;;;;5075099;28;20473;-45
2022/05/30 02:38:47;;;;;;;1.40;1.23;;;10.40;99.90;;;;;;5075101;28;20486;-42
2022/05/30 02:41:14;;;;;;;1.70;0.83;;;10.40;99.90;;;;;;5074654;28;20562;-43
2022/05/30 02:43:40;;;;;;;1.50;0.97;;;10.40;99.90;;;;;;5075077;28;20468;-45
2022/05/30 02:46:07;;;;;;;1.90;1.30;;;10.40;99.90;;;;;;5075309;28;20482;-43
2022/05/30 02:48:34;;;;;;;1.50;1.30;;;10.40;99.90;;;;;;5075112;28;20554;-43
2022/05/30 02:51:03;;;;;;;1.47;1.27;;;10.40;99.90;;;;;;5074828;28;20450;-44
2022/05/30 02:53:30;;;;;;;1.80;1.40;;;10.40;99.90;;;;;;5075029;28;20447;-43
2022/05/30 02:55:59;;;;;;;1.83;1.67;;;10.40;99.90;;;;;;5074901;28;20479;-43
2022/05/30 02:58:26;;;;;;;1.40;1.30;;;10.30;99.90;;;;;;5074729;28;21010;-43
2022/05/30 03:00:53;;;;;;;2.60;1.80;;;10.40;99.90;;;;;;5074650;28;20476;-43
2022/05/30 03:03:20;;;;;;;2.53;1.40;;;10.40;99.90;;;;;;5074882;28;20532;-44
2022/05/30 03:05:47;;;;;;;3.93;1.50;;;10.40;99.90;;;;;;5074721;28;20498;-43
2022/05/30 03:08:16;;;;;;;1.63;1.30;;;10.40;99.90;;;;;;5074400;28;21037;-43
2022/05/30 03:10:43;;;;;;;2.07;1.30;;;10.40;99.90;;;;;;5074375;28;20494;-43
2022/05/30 03:13:10;;;;;;;2.20;1.77;;;10.40;99.90;;;;;;5074442;28;20981;-43
2022/05/30 03:15:37;;;;;;;2.13;1.23;;;10.30;99.90;;;;;;5074765;28;20497;-43
2022/05/30 03:18:04;;;;;;;3.30;1.50;;;10.30;99.90;;;;;;5074470;28;20537;-43
2022/05/30 03:20:31;;;;;;;2.90;1.50;;;10.30;99.90;;;;;;5073906;28;20446;-46
2022/05/30 03:22:58;;;;;;;1.70;1.50;;;10.20;99.90;;;;;;5074561;28;20478;-42
2022/05/30 03:25:26;;;;;;;1.47;1.20;;;10.20;99.90;;;;;;5074280;28;20436;-43
2022/05/30 03:27:54;;;;;;;2.57;1.60;;;10.10;99.90;;;;;;5074159;28;20496;-45
2022/05/30 03:30:21;;;;;;;1.97;1.40;;;10.00;99.90;;;;;;5074123;28;20448;-43
2022/05/30 03:32:48;;;;;;;2.70;1.60;;;10.00;99.90;;;;;;5074349;28;20468;-43
2022/05/30 03:35:16;;;;;;;4.80;1.40;;;10.00;99.90;;;;;;5073960;28;20469;-48
2022/05/30 03:37:43;;;;;;;1.77;1.37;;;9.90;99.90;;;;;;5073810;28;20475;-43
2022/05/30 03:40:13;;;;;;;2.70;1.60;;;9.90;99.90;;;;;;5073458;28;20531;-43
2022/05/30 03:42:42;;;;;;;1.80;1.50;;;9.90;99.90;;;;;;5074144;28;20856;-44
2022/05/30 03:45:13;;;;;;;2.33;1.70;;;9.80;99.90;;;;;;5074001;28;21012;-44
2022/05/30 03:47:42;;;;;;;1.90;1.80;;;9.90;99.90;;;;;;5074014;28;20440;-45
2022/05/30 03:50:12;;;;;;;1.63;1.27;;;9.90;99.90;;;;;;5073888;28;20443;-43
2022/05/30 03:52:39;;;;;;;2.17;1.70;;;9.90;99.90;;;;;;5074144;28;20468;-43
2022/05/30 03:55:08;;;;;;;1.80;1.63;;;9.90;99.90;;;;;;5073861;28;20453;-43
2022/05/30 03:57:35;;;;;;;1.83;1.30;;;10.00;99.90;;;;;;5073916;28;20441;-45
2022/05/30 04:00:04;;;;;;;4.53;1.70;;;10.10;99.90;;;;;;5073426;28;20448;-43
2022/05/30 04:02:31;;;;;;;2.13;1.20;;;10.10;99.90;;;;;;5073533;28;20472;-46
2022/05/30 04:04:58;;;;;;;1.67;1.43;;;10.20;99.90;;;;;;5073641;28;20450;-43
2022/05/30 04:07:26;;;;;;;2.00;1.20;;;10.20;99.90;;;;;;5073666;28;20489;-41
2022/05/30 04:09:53;;;;;;;2.00;1.80;;;10.20;99.90;;;;;;5073391;28;20440;-43
2022/05/30 04:12:21;;;;;;;3.40;1.60;;;10.20;99.90;;;;;;5073429;28;20565;-44
2022/05/30 04:14:53;;;;;;;2.20;1.60;;;10.10;99.90;;;;;;5073339;28;20449;-43
2022/05/30 04:17:22;;;;;;;3.83;1.53;;;10.20;99.90;;;;;;5073439;28;20440;-48
2022/05/30 04:19:49;;;;;;;1.67;1.57;;;10.20;99.90;;;;;;5073140;28;20506;-43
2022/05/30 04:22:16;;;;;;;2.20;1.87;;;10.10;99.90;;;;;;5073212;28;20515;-43
2022/05/30 04:24:43;;;;;;;2.40;2.20;;;9.70;99.90;;;;;;5073407;28;20531;-43
2022/05/30 04:27:10;;;;;;;2.40;1.83;;;9.30;99.90;;;;;;5073197;28;20676;-44
2022/05/30 04:29:38;;;;;;;2.10;1.87;;;9.00;99.90;;;;;;5072799;28;20493;-44
2022/05/30 04:32:06;;;;;;;4.63;2.00;;;8.90;99.90;;;;;;5073172;28;20857;-43
2022/05/30 04:34:36;;;;;;;2.90;1.90;;;8.90;99.90;;;;;;5073024;28;20489;-48
2022/05/30 04:37:03;;;;;;;2.23;2.00;;;9.10;99.90;;;;;;5072957;28;20451;-43
2022/05/30 04:39:30;;;;;;;2.47;2.27;;;9.10;99.90;;;;;;5072332;28;20513;-43
2022/05/30 04:41:57;;;;;;;2.80;2.47;;;9.20;99.90;;;;;;5073039;28;20483;-43
2022/05/30 04:44:24;;;;;;;3.50;3.30;;;9.40;99.90;;;;;;5073048;28;20443;-44
2022/05/30 04:46:53;;;;;;;2.07;1.70;;;9.50;99.90;;;;;;5072850;28;20468;-43
2022/05/30 04:49:20;;;;;;;1.80;1.70;;;9.60;99.90;;;;;;5072503;28;20545;-43
2022/05/30 04:51:48;;;;;;;2.93;1.53;;;9.70;99.90;;;;;;5071997;28;20460;-44
2022/05/30 04:54:15;;;;;;;2.33;1.93;;;9.80;99.90;;;;;;5072686;28;20449;-43
2022/05/30 04:56:42;;;;;;;1.90;1.70;;;9.80;99.90;;;;;;5072727;28;20446;-43
2022/05/30 04:59:10;;;;;;;3.30;1.60;;;9.90;99.90;;;;;;5072343;28;20980;-43
2022/05/30 05:01:37;;;;;;;1.80;1.70;;;9.90;99.90;;;;;;5072603;28;20777;-43
2022/05/30 05:04:05;;;;;;;2.10;2.00;;;9.90;99.90;;;;;;5072545;28;20498;-45
2022/05/30 05:06:32;;;;;;;2.13;1.77;;;10.00;99.90;;;;;;5072601;28;20530;-44
2022/05/30 05:09:05;;;;;;;2.90;1.63;;;10.00;99.90;;;;;;5072009;28;20468;-46
2022/05/30 05:11:33;;;;;;;2.37;2.00;;;10.10;99.90;;;;;;5072548;28;20436;-46
2022/05/30 05:14:00;;;;;;;1.67;1.57;;;10.20;99.90;;;;;;5072304;28;20440;-46
2022/05/30 05:16:29;;;;;;;2.00;1.80;;;10.20;99.90;;;;;;5072428;28;20474;-44
2022/05/30 05:18:57;;;;;;;5.97;2.20;;;10.20;99.90;;;;;;5071875;28;20507;-43
2022/05/30 05:21:27;;;;;;;2.43;1.87;;;10.20;99.90;;;;;;5072103;28;20541;-44
2022/05/30 05:23:54;;;;;;;2.53;1.80;;;10.30;99.90;;;;;;5072151;28;20494;-43
2022/05/30 05:26:23;;;;;;;1.90;1.80;;;10.30;99.90;;;;;;5072232;28;20451;-44
2022/05/30 05:28:50;;;;;;;2.97;1.90;;;10.40;99.90;;;;;;5071759;28;21005;-43
2022/05/30 05:31:23;;;;;;;6.40;1.93;;;10.40;99.90;;;;;;5071849;28;20848;-43
2022/05/30 05:33:50;;;;;;;2.20;2.00;;;10.50;99.90;;;;;;5072284;28;20455;-43
2022/05/30 05:36:20;;;;;;;2.10;1.90;;;10.50;99.90;;;;;;5071868;28;21305;-43
2022/05/30 05:38:47;;;;;;;2.33;2.00;;;10.50;99.90;;;;;;5071378;28;20462;-45
2022/05/30 05:41:14;;;;;;;3.23;1.67;;;10.60;99.90;;;;;;5071204;28;20443;-43
2022/05/30 05:43:43;;;;;;;3.40;1.67;;;10.60;99.90;;;;;;5071536;28;20953;-44
2022/05/30 05:46:14;;;;;;;2.90;1.60;;;10.60;99.90;;;;;;5071834;28;20469;-49
2022/05/30 05:48:40;;;;;;;2.20;1.80;;;10.50;99.90;;;;;;5071510;28;20467;-40
2022/05/30 05:51:08;;;;;;;2.43;2.13;;;10.40;99.90;;;;;;5071550;28;20510;-43
2022/05/30 05:53:34;;;;;;;2.10;1.90;;;10.40;99.90;;;;;;5071736;28;20444;-44
2022/05/30 05:56:10;;;;;;;2.60;2.03;;;10.50;99.90;;;;;;5071796;28;20979;-43
2022/05/30 05:58:37;;;;;;;2.23;2.13;;;10.50;99.90;;;;;;5072076;28;20526;-43
2022/05/30 06:01:08;;;;;;;2.47;1.80;;;10.20;99.90;;;;;;5071480;28;20475;-43
2022/05/30 06:03:35;;;;;;;2.73;1.93;;;10.20;99.90;;;;;;5070978;28;20464;-44
2022/05/30 06:06:04;;;;;;;2.80;2.03;;;10.00;99.90;;;;;;5071612;28;20928;-45
2022/05/30 06:08:31;;;;;;;2.00;1.70;;;10.10;99.90;;;;;;5071898;28;20490;-43
2022/05/30 06:11:09;;;;;;;1.60;1.50;;;10.10;99.90;;;;;;5071122;28;20440;-43
2022/05/30 06:13:37;;;;;;;4.03;1.77;;;10.30;99.90;;;;;;5071590;28;20443;-43
2022/05/30 06:16:11;;;;;;;2.30;1.70;;;10.40;99.90;;;;;;5071540;28;20443;-45
2022/05/30 06:18:38;;;;;;;2.57;1.67;;;10.50;99.90;;;;;;5132135;22;20511;-49
2022/05/30 06:21:05;;;;;;;1.67;1.57;;;10.60;99.90;;;;;;5091145;28;20475;-46
2022/05/30 06:23:32;;;;;;;2.30;1.60;;;10.80;99.90;;;;;;5091167;28;20954;-48
2022/05/30 06:26:01;;;;;;;3.07;1.93;;;10.80;99.90;;;;;;5091568;28;20447;-45
2022/05/30 06:28:29;;;;;;;3.87;1.90;;;10.80;99.90;;;;;;5091414;28;20493;-48
2022/05/30 06:30:56;;;;;;;2.40;1.53;;;10.80;99.90;;;;;;5091308;28;20442;-45
2022/05/30 06:33:24;;;;;;;2.30;1.40;;;10.90;99.90;;;;;;5091448;28;20512;-47
2022/05/30 06:35:51;;;;;;;2.90;1.67;;;10.70;99.90;;;;;;5091659;28;20535;-46
2022/05/30 06:38:18;;;;;;;2.50;1.90;;;10.80;99.90;;;;;;5091426;28;20475;-45
2022/05/30 06:40:45;;;;;;;2.03;1.83;;;10.80;99.90;;;;;;5090514;28;20440;-46
2022/05/30 06:43:12;;;;;;;2.13;1.60;;;11.00;99.90;;;;;;5091025;28;20475;-47
2022/05/30 06:45:39;;;;;;;1.90;1.60;;;11.20;99.90;;;;;;5091307;28;20475;-45
2022/05/30 06:48:06;;;;;;;2.30;1.60;;;11.20;99.90;;;;;;5091132;28;20497;-46
2022/05/30 06:50:36;;;;;;;2.57;2.23;;;11.30;99.90;;;;;;5091168;28;20542;-45
2022/05/30 06:53:03;;;;;;;1.77;1.60;;;11.40;99.90;;;;;;5091318;28;20465;-45
2022/05/30 06:55:32;;;;;;;2.93;1.90;;;11.50;99.90;;;;;;5091477;28;20439;-45
2022/05/30 06:58:14;;;;;;;2.00;1.80;;;11.60;99.90;;;;;;5091268;28;20445;-46
2022/05/30 07:00:41;;;;;;;1.57;1.43;;;11.70;99.90;;;;;;5091151;28;20439;-46
2022/05/30 07:03:08;;;;;;;2.00;1.80;;;11.80;99.90;;;;;;5091107;28;20562;-49
2022/05/30 07:05:37;;;;;;;1.77;1.30;;;11.70;99.90;;;;;;5091151;28;20493;-46
2022/05/30 07:08:05;;;;;;;1.70;1.60;;;11.80;99.90;;;;;;5091068;28;21020;-45
2022/05/30 07:10:35;;;;;;;1.73;1.50;;;11.60;99.90;;;;;;5090617;28;20919;-46
2022/05/30 07:13:03;;;;;;;1.60;1.10;;;11.60;99.90;;;;;;5091169;28;20423;-45
2022/05/30 07:15:31;;;;;;;4.20;1.47;;;11.70;99.90;;;;;;5092565;28;20450;-46
2022/05/30 07:17:59;;;;;;;2.13;1.50;;;11.90;99.90;;;;;;5094664;28;20497;-47
2022/05/30 07:20:26;;;;;;;1.87;1.20;;;12.20;99.90;;;;;;5094753;28;20543;-46
2022/05/30 07:22:55;;;;;;;2.87;1.47;;;12.50;99.90;;;;;;5094760;28;20510;-45
2022/05/30 07:25:22;;;;;;;1.50;1.40;;;12.20;99.90;;;;;;5095193;28;20966;-48
2022/05/30 07:27:48;;;;;;;1.90;1.43;;;12.40;99.90;;;;;;5094978;28;20444;-48
2022/05/30 07:30:16;;;;;;;2.30;1.80;;;12.90;99.90;;;;;;5093975;28;21048;-46
2022/05/30 07:32:43;;;;;;;3.87;1.63;;;13.30;99.90;;;;;;5094516;28;20443;-46
2022/05/30 07:35:10;;;;;;;4.20;1.93;;;13.70;99.90;;;;;;5094453;28;20474;-48
2022/05/30 07:37:37;;;;;;;1.57;1.23;;;13.70;99.90;;;;;;5094417;28;20522;-46
2022/05/30 07:40:07;;;;;;;1.73;1.30;;;13.60;99.90;;;;;;5093480;28;20497;-46
2022/05/30 07:42:34;;;;;;;1.50;1.20;;;13.70;99.90;;;;;;5094514;28;20990;-46
2022/05/30 07:45:01;;;;;;;2.17;1.40;;;13.40;99.90;;;;;;5094061;28;20448;-46
2022/05/30 07:47:28;;;;;;;2.17;1.43;;;13.60;99.90;;;;;;5094280;28;20443;-45
2022/05/30 07:50:02;;;;;;;2.13;1.57;;;13.80;99.90;;;;;;5094055;28;20459;-46
2022/05/30 07:52:29;;;;;;;1.73;1.40;;;13.60;99.90;;;;;;5094284;28;20446;-45
2022/05/30 07:54:56;;;;;;;1.70;1.20;;;14.00;99.90;;;;;;5094120;28;20435;-46
2022/05/30 08:00:07;;;;;;;2.03;1.30;;;13.80;99.90;;;;;;5092919;28;20483;-50
2022/05/30 08:02:34;;;;;;;1.37;1.27;;;14.10;99.90;;;;;;5094395;28;20471;-48
2022/05/30 08:05:01;;;;;;;1.63;1.10;;;14.30;99.90;;;;;;5093829;28;20887;-46
2022/05/30 08:07:28;;;;;;;1.50;1.23;;;14.50;99.90;;;;;;5094262;28;20527;-46
2022/05/30 08:09:55;;;;;;;1.80;1.10;;;14.60;99.90;;;;;;5093646;28;20820;-46
2022/05/30 08:12:23;;;;;;;1.50;1.40;;;14.60;99.90;;;;;;5093688;28;20467;-46
2022/05/30 08:14:50;;;;;;;2.33;1.50;;;14.80;99.90;;;;;;5093675;28;20471;-46
2022/05/30 08:17:17;;;;;;;1.17;1.00;;;15.10;99.90;;;;;;5093461;28;20471;-47
2022/05/30 08:19:44;;;;;;;1.57;1.23;;;15.30;99.90;;;;;;5093231;28;20471;-45
2022/05/30 08:22:11;;;;;;;2.50;1.30;;;15.20;99.90;;;;;;5093592;28;20479;-48
2022/05/30 08:24:40;;;;;;;1.30;1.20;;;15.30;99.90;;;;;;5093578;28;20869;-46
2022/05/30 08:27:07;;;;;;;2.57;1.43;;;15.20;99.90;;;;;;5092373;28;20478;-46
2022/05/30 08:29:36;;;;;;;2.03;1.30;;;15.30;99.90;;;;;;5093165;28;20471;-46
2022/05/30 08:32:04;;;;;;;1.90;1.40;;;15.20;99.90;;;;;;5093523;28;20464;-45
2022/05/30 08:34:32;;;;;;;1.60;1.30;;;15.40;99.90;;;;;;5093357;28;20869;-46
2022/05/30 08:37:01;;;;;;;2.70;1.50;;;15.60;99.90;;;;;;5093354;28;20493;-46
2022/05/30 08:42:12;;;;;;;1.93;1.40;;;15.70;99.90;;;;;;5093256;28;20436;-46
2022/05/30 08:44:40;;;;;;;2.23;1.60;;;15.50;99.90;;;;;;5093110;28;20526;-46
2022/05/30 08:47:13;;;;;;;2.50;1.50;;;15.60;99.90;;;;;;5093007;28;20443;-46
2022/05/30 08:49:49;;;;;;;2.30;1.80;;;15.50;99.90;;;;;;5092824;28;20467;-43
2022/05/30 08:52:32;;;;;;;1.50;1.40;;;15.70;99.90;;;;;;5093204;28;20529;-44
2022/05/30 08:55:05;;;;;;;2.00;1.50;;;16.00;99.90;;;;;;5093156;28;20485;-43
2022/05/30 08:57:45;;;;;;;5.07;2.00;;;16.00;99.90;;;;;;5092869;28;20486;-46
2022/05/30 09:00:20;;;;;;;2.50;1.60;;;15.80;99.90;;;;;;5092654;28;20459;-46
2022/05/30 09:02:51;;;;;;;1.67;1.10;;;15.70;99.90;;;;;;5092811;28;20480;-46
2022/05/30 09:05:23;;;;;;;3.43;1.40;;;15.60;99.90;;;;;;5092880;28;20466;-49
2022/05/30 09:07:53;;;;;;;1.90;1.70;;;15.50;99.90;;;;;;5092805;28;20798;-46
2022/05/30 09:10:24;;;;;;;1.60;1.27;;;15.60;99.90;;;;;;5092358;28;20463;-47
2022/05/30 09:12:55;;;;;;;4.87;1.90;;;15.50;99.90;;;;;;5092733;28;20440;-45
2022/05/30 09:15:27;;;;;;;1.70;1.37;;;15.30;99.90;;;;;;5092525;28;20447;-48
2022/05/30 09:18:01;;;;;;;1.87;1.40;;;15.20;99.90;;;;;;5092649;28;20567;-46
2022/05/30 09:20:31;;;;;;;1.73;1.20;;;15.10;99.90;;;;;;5091976;28;20483;-45
2022/05/30 09:22:58;;;;;;;1.43;1.33;;;15.20;99.90;;;;;;5092411;28;20479;-46
2022/05/30 09:28:17;;;;;;;1.70;1.50;;;14.90;99.90;;;;;;5092314;28;20420;-45
2022/05/30 09:30:52;;;;;;;1.30;1.10;;;14.90;99.90;;;;;;5092150;28;20443;-45
2022/05/30 09:33:29;;;;;;;2.33;1.60;;;15.00;99.90;;;;;;5092197;28;20434;-45
2022/05/30 09:36:13;;;;;;;2.47;2.27;;;14.90;99.90;;;;;;5092197;28;20439;-45
2022/05/30 09:38:45;;;;;;;2.43;1.73;;;14.80;99.90;;;;;;5091998;28;20489;-50
2022/05/30 09:41:20;;;;;;;2.30;1.80;;;14.80;99.90;;;;;;5091743;28;20531;-45
2022/05/30 09:43:52;;;;;;;2.37;1.57;;;14.80;99.90;;;;;;5091963;28;20482;-46
2022/05/30 09:46:31;;;;;;;1.90;1.70;;;14.80;99.90;;;;;;5092205;28;20801;-46
2022/05/30 09:49:07;;;;;;;2.80;2.30;;;14.80;99.90;;;;;;5091713;28;20820;-46
2022/05/30 09:51:38;;;;;;;2.30;1.23;;;14.80;99.90;;;;;;5092342;28;20493;-46
2022/05/30 09:54:07;;;;;;;1.83;1.33;;;14.80;99.90;;;;;;5091820;28;20514;-45
2022/05/30 09:56:38;;;;;;;2.43;1.53;;;14.80;99.90;;;;;;5091953;28;20439;-45
2022/05/30 09:59:07;;;;;;;2.60;1.60;;;14.80;99.90;;;;;;5091450;28;20459;-47
2022/05/30 10:01:37;;;;;;;1.77;1.60;;;14.40;99.90;;;;;;5091604;28;20933;-45
2022/05/30 10:04:18;;;;;;;1.93;1.40;;;14.30;99.90;;;;;;5091472;28;20576;-45
2022/05/30 10:07:05;;;;;;;1.20;1.10;;;14.40;99.90;;;;;;5091598;28;20492;-46
2022/05/30 10:09:34;;;;;;;2.23;1.40;;;14.50;99.90;;;;;;5091537;28;20455;-46
2022/05/30 10:12:01;;;;;;;1.60;1.23;;;14.50;99.90;;;;;;5091727;28;20574;-46
2022/05/30 10:14:32;;;;;;;2.20;1.20;;;14.40;99.90;;;;;;5091584;28;21001;-46
2022/05/30 10:17:12;;;;;;;2.67;1.60;;;14.40;99.90;;;;;;5091668;28;20447;-44
2022/05/30 10:19:42;;;;;;;1.40;1.30;;;14.40;99.90;;;;;;5091122;28;21004;-46
2022/05/30 10:28:39;;;;;;;2.03;1.40;;;14.40;99.90;;;;;;5091425;28;20497;-45
2022/05/30 10:31:16;;;;;;;2.07;1.57;;;14.10;99.90;;;;;;5091417;28;20542;-46
2022/05/30 10:34:02;;;;;;;2.00;1.57;;;13.70;99.90;;;;;;5091742;28;20786;-45
2022/05/30 10:36:39;;;;;;;2.40;2.20;;;13.80;99.90;;;;;;5091602;28;20522;-45
2022/05/30 10:39:25;;;;;;;1.80;1.67;;;13.90;99.90;;;;;;5091339;28;20463;-45
2022/05/30 10:41:58;;;;;;;2.40;1.40;;;14.00;99.90;;;;;;5091549;28;20482;-45
2022/05/30 10:44:29;;;;;;;2.40;2.00;;;14.00;99.90;;;;;;5091513;28;20518;-47
2022/05/30 10:47:03;;;;;;;2.57;2.03;;;13.90;99.90;;;;;;5091210;28;20526;-45
2022/05/30 10:49:37;;;;;;;2.47;2.17;;;14.00;99.90;;;;;;5091190;28;20504;-45
2022/05/30 10:52:07;;;;;;;2.40;2.20;;;14.00;99.90;;;;;;5095302;28;20977;-45
2022/05/30 10:54:41;;;;;;;3.90;2.90;;;14.10;99.90;;;;;;5095127;28;20471;-46
2022/05/30 10:57:18;;;;;;;3.37;2.70;;;14.00;99.90;;;;;;5095274;28;20500;-46
2022/05/30 10:59:52;;;;;;;3.80;2.63;;;14.00;99.90;;;;;;5094906;28;20512;-46
2022/05/30 11:02:25;;;;;;;2.70;2.50;;;14.00;99.90;;;;;;5095045;28;20435;-46
2022/05/30 11:04:59;;;;;;;3.13;2.63;;;14.00;99.90;;;;;;5095339;28;20558;-45
2022/05/30 11:07:45;;;;;;;3.30;2.03;;;14.20;99.90;;;;;;5095242;28;20446;-46
2022/05/30 11:10:35;;;;;;;2.53;1.90;;;14.20;99.90;;;;;;5094756;28;20512;-46
2022/05/30 11:13:08;;;;;;;3.97;1.93;;;14.30;99.90;;;;;;5092128;28;20440;-46
2022/05/30 11:15:40;;;;;;;2.73;2.00;;;14.30;99.90;;;;;;5095136;28;20474;-46
2022/05/30 11:18:15;;;;;;;2.23;2.03;;;14.30;99.90;;;;;;5094875;28;20442;-46
2022/05/30 11:20:49;;;;;;;2.97;2.67;;;14.40;99.90;;;;;;5094621;28;20476;-49
2022/05/30 11:23:18;;;;;;;3.63;2.73;;;14.40;99.90;;;;;;5094612;28;20467;-45
2022/05/30 11:26:05;;;;;;;2.13;1.93;;;14.40;99.90;;;;;;5094775;28;20447;-46
2022/05/30 11:28:43;;;;;;;3.20;2.13;;;14.50;99.90;;;;;;5094917;28;20459;-45
2022/05/30 11:31:15;;;;;;;2.57;2.30;;;14.50;99.90;;;;;;5094559;28;20443;-45
2022/05/30 11:34:03;;;;;;;2.93;2.60;;;14.50;99.90;;;;;;5094534;28;20500;-46
2022/05/30 11:36:55;;;;;;;2.17;1.87;;;14.50;99.90;;;;;;5094690;28;20867;-51
2022/05/30 11:39:39;;;;;;;2.13;1.70;;;14.60;99.90;;;;;;5094030;28;20498;-47
2022/05/30 11:42:17;;;;;;;2.23;1.90;;;14.60;99.90;;;;;;5094580;28;20478;-45
2022/05/30 11:44:50;;;;;;;2.53;1.97;;;14.60;99.90;;;;;;5094405;28;20558;-49
2022/05/30 11:47:30;;;;;;;1.93;1.47;;;14.70;99.90;;;;;;5094334;28;20439;-48
2022/05/30 11:50:08;;;;;;;2.93;1.50;;;14.80;99.90;;;;;;5093858;28;20468;-46
2022/05/30 11:53:07;;;;;;;2.30;1.50;;;14.70;99.90;;;;;;5094046;28;20485;-46
2022/05/30 11:55:43;;;;;;;1.80;1.53;;;14.50;99.90;;;;;;5090936;28;20508;-46
2022/05/30 11:58:12;;;;;;;1.70;1.50;;;14.50;99.90;;;;;;5094174;28;20469;-45
2022/05/30 12:00:43;;;;;;;3.30;1.70;;;14.50;99.90;;;;;;5094352;28;20471;-46
2022/05/30 12:03:55;;;;;;;1.67;1.47;;;14.50;99.90;;;;;;5092964;28;20443;-47
2022/05/30 12:06:44;;;;;;;1.30;1.20;;;14.60;99.90;;;;;;5093957;28;20870;-45
2022/05/30 12:09:30;;;;;;;2.40;1.90;;;14.50;99.90;;;;;;5093527;28;20456;-48
2022/05/30 12:12:15;;;;;;;1.50;1.40;;;14.50;99.90;;;;;;5094593;28;20450;-45
2022/05/30 12:15:03;;;;;;;1.90;1.33;;;14.60;99.90;;;;;;5093987;28;20792;-45
2022/05/30 12:23:52;;;;;;;2.00;1.80;;;14.80;99.90;;;;;;5093680;28;20524;-48
2022/05/30 12:27:06;;;;;;;2.63;1.47;;;14.70;99.90;;;;;;5093837;28;20443;-46
2022/05/30 12:29:50;;;;;;;2.10;1.90;;;14.50;99.90;;;;;;5093050;28;21028;-46
2022/05/30 12:32:39;;;;;;;2.73;2.00;;;14.60;99.90;;;;;;5093749;28;20444;-45
2022/05/30 12:35:29;;;;;;;2.60;1.77;;;14.70;99.90;;;;;;5093491;28;20870;-48
2022/05/30 12:38:20;;;;;;;2.60;1.70;;;14.70;99.90;;;;;;5093149;28;20446;-46
2022/05/30 12:41:19;;;;;;;3.00;2.07;;;14.70;99.90;;;;;;5072656;28;20451;-48
2022/05/30 12:43:47;;;;;;;3.53;2.03;;;14.70;99.90;;;;;;5076935;28;20478;-46
2022/05/30 12:46:25;;;;;;;3.00;1.73;;;14.80;99.90;;;;;;5093244;28;20443;-46
2022/05/30 12:49:16;;;;;;;2.10;1.90;;;15.00;99.90;;;;;;5093140;28;20550;-46
2022/05/30 12:52:01;;;;;;;24.93;4.57;;;15.20;99.90;;;;;;5092806;28;20501;-46
2022/05/30 12:54:45;;;;;;;3.50;2.47;;;15.30;99.90;;;;;;5093257;28;20432;-48
2022/05/30 12:57:36;;;;;;;7.50;3.20;;;15.40;99.90;;;;;;5093046;28;20439;-48
2022/05/30 13:00:24;;;;;;;3.30;2.00;;;15.50;99.90;;;;;;5092783;28;20491;-45
2022/05/30 13:03:36;;;;;;;22.80;5.83;;;15.50;99.90;;;;;;5093091;28;20436;-46
2022/05/30 13:06:10;;;;;;;4.80;1.63;;;15.60;99.90;;;;;;5092607;28;20457;-46
2022/05/30 13:09:16;;;;;;;21.67;5.20;;;15.50;99.90;;;;;;5092880;28;20903;-48
2022/05/30 13:12:22;;;;;;;13.30;3.70;;;15.40;99.90;;;;;;5092531;28;20440;-46
2022/05/30 13:15:07;;;;;;;19.50;5.60;;;14.90;99.90;;;;;;5092240;28;20474;-48
2022/05/30 13:17:47;;;;;;;1.90;1.47;;;14.40;99.90;;;;;;5092960;28;20526;-46
2022/05/30 13:20:16;;;;;;;2.33;1.40;;;14.10;99.90;;;;;;5092102;28;20479;-48
2022/05/30 13:22:46;;;;;;;8.07;2.50;;;13.70;99.90;;;;;;5092479;28;20497;-45
2022/05/30 13:25:18;;;;;;;55.90;7.50;;;13.50;99.90;;;;;;5092486;28;20471;-44
2022/05/30 13:27:46;;;;;;;8.73;1.67;;;13.30;99.90;;;;;;5092726;28;20447;-45
2022/05/30 13:30:19;;;;;;;1.93;1.63;;;13.10;99.90;;;;;;5091963;28;20460;-46
2022/05/30 13:32:50;;;;;;;5.90;3.03;;;13.00;99.90;;;;;;5092204;28;20471;-49
2022/05/30 13:35:17;;;;;;;2.70;2.13;;;12.90;99.90;;;;;;5092450;28;20450;-47
2022/05/30 13:37:58;;;;;;;2.00;1.50;;;12.90;99.90;;;;;;5092568;28;20501;-45
2022/05/30 13:40:28;;;;;;;2.57;2.20;;;12.80;99.90;;;;;;5092149;28;20486;-46
2022/05/30 13:42:56;;;;;;;2.40;2.03;;;12.80;99.90;;;;;;5092671;28;20479;-46